sensor_id;sensor_type;location;lat;lon;timestamp;P1;durP1;ratioP1;P2;durP2;ratioP2
8413;SDS011;4244;48.684;9.028;2023-10-08T00:01:03;9.00;;;5.40;;
8413;SDS011;4244;48.684;9.028;2023-10-08T00:03:31;8.67;;;5.67;;
8413;SDS011;4244;48.684;9.028;2023-10-08T00:05:58;5.80;;;4.63;;
8413;SDS011;4244;48.684;9.028;2023-10-08T00:08:31;5.57;;;4.33;;
8413;SDS011;4244;48.684;9.028;2023-10-08T00:11:00;5.60;;;4.43;;
8413;SDS011;4244;48.684;9.028;2023-10-08T00:13:31;7.10;;;4.87;;
8413;SDS011;4244;48.684;9.028;2023-10-08T00:16:04;7.20;;;5.60;;
8413;SDS011;4244;48.684;9.028;2023-10-08T00:18:40;7.60;;;5.10;;
8413;SDS011;4244;48.684;9.028;2023-10-08T00:21:13;7.87;;;4.50;;
8413;SDS011;4244;48.684;9.028;2023-10-08T00:23:39;6.80;;;4.43;;
8413;SDS011;4244;48.684;9.028;2023-10-08T00:26:07;7.13;;;4.70;;
8413;SDS011;4244;48.684;9.028;2023-10-08T00:28:33;5.63;;;4.07;;
8413;SDS011;4244;48.684;9.028;2023-10-08T00:31:01;5.90;;;4.00;;
8413;SDS011;4244;48.684;9.028;2023-10-08T00:33:40;4.83;;;3.83;;
8413;SDS011;4244;48.684;9.028;2023-10-08T00:36:09;6.40;;;3.87;;
8413;SDS011;4244;48.684;9.028;2023-10-08T00:38:48;6.23;;;4.20;;
8413;SDS011;4244;48.684;9.028;2023-10-08T00:41:18;5.00;;;4.20;;
8413;SDS011;4244;48.684;9.028;2023-10-08T00:43:46;5.70;;;4.10;;
8413;SDS011;4244;48.684;9.028;2023-10-08T00:46:13;6.40;;;4.17;;
8413;SDS011;4244;48.684;9.028;2023-10-08T00:48:48;7.40;;;3.73;;
8413;SDS011;4244;48.684;9.028;2023-10-08T00:51:23;6.43;;;4.90;;
8413;SDS011;4244;48.684;9.028;2023-10-08T00:54:11;6.83;;;4.63;;
8413;SDS011;4244;48.684;9.028;2023-10-08T00:56:42;5.60;;;4.37;;
8413;SDS011;4244;48.684;9.028;2023-10-08T00:59:14;4.63;;;3.40;;
8413;SDS011;4244;48.684;9.028;2023-10-08T01:01:44;6.70;;;4.27;;
8413;SDS011;4244;48.684;9.028;2023-10-08T01:04:17;5.90;;;4.40;;
8413;SDS011;4244;48.684;9.028;2023-10-08T01:06:47;6.20;;;4.90;;
8413;SDS011;4244;48.684;9.028;2023-10-08T01:09:24;6.70;;;4.30;;
8413;SDS011;4244;48.684;9.028;2023-10-08T01:12:16;5.30;;;4.57;;
8413;SDS011;4244;48.684;9.028;2023-10-08T01:14:53;6.60;;;4.50;;
8413;SDS011;4244;48.684;9.028;2023-10-08T01:17:19;7.93;;;4.20;;
8413;SDS011;4244;48.684;9.028;2023-10-08T01:19:51;6.47;;;4.30;;
8413;SDS011;4244;48.684;9.028;2023-10-08T01:22:46;7.17;;;4.90;;
8413;SDS011;4244;48.684;9.028;2023-10-08T01:25:12;8.07;;;4.60;;
8413;SDS011;4244;48.684;9.028;2023-10-08T01:27:46;5.60;;;4.40;;
8413;SDS011;4244;48.684;9.028;2023-10-08T01:30:12;5.67;;;4.43;;
8413;SDS011;4244;48.684;9.028;2023-10-08T01:32:43;6.90;;;4.63;;
8413;SDS011;4244;48.684;9.028;2023-10-08T01:35:09;6.60;;;4.93;;
8413;SDS011;4244;48.684;9.028;2023-10-08T01:37:50;6.57;;;4.23;;
8413;SDS011;4244;48.684;9.028;2023-10-08T01:40:17;6.73;;;4.80;;
8413;SDS011;4244;48.684;9.028;2023-10-08T01:42:43;7.33;;;4.00;;
8413;SDS011;4244;48.684;9.028;2023-10-08T01:45:09;6.73;;;4.20;;
8413;SDS011;4244;48.684;9.028;2023-10-08T01:47:38;8.10;;;4.70;;
8413;SDS011;4244;48.684;9.028;2023-10-08T01:50:04;6.23;;;4.40;;
8413;SDS011;4244;48.684;9.028;2023-10-08T01:52:33;6.07;;;4.20;;
8413;SDS011;4244;48.684;9.028;2023-10-08T01:54:59;6.80;;;4.30;;
8413;SDS011;4244;48.684;9.028;2023-10-08T01:57:25;7.80;;;3.93;;
8413;SDS011;4244;48.684;9.028;2023-10-08T01:59:51;11.70;;;4.43;;
8413;SDS011;4244;48.684;9.028;2023-10-08T02:02:16;6.53;;;3.70;;
8413;SDS011;4244;48.684;9.028;2023-10-08T02:04:42;5.93;;;4.03;;
8413;SDS011;4244;48.684;9.028;2023-10-08T02:07:09;7.63;;;3.60;;
8413;SDS011;4244;48.684;9.028;2023-10-08T02:09:40;6.40;;;3.67;;
8413;SDS011;4244;48.684;9.028;2023-10-08T02:12:06;4.37;;;3.70;;
8413;SDS011;4244;48.684;9.028;2023-10-08T02:14:33;4.70;;;3.93;;
8413;SDS011;4244;48.684;9.028;2023-10-08T02:17:01;6.63;;;4.00;;
8413;SDS011;4244;48.684;9.028;2023-10-08T02:19:31;9.40;;;4.57;;
8413;SDS011;4244;48.684;9.028;2023-10-08T02:21:57;5.50;;;3.90;;
8413;SDS011;4244;48.684;9.028;2023-10-08T02:24:23;6.43;;;4.17;;
8413;SDS011;4244;48.684;9.028;2023-10-08T02:26:53;5.90;;;4.20;;
8413;SDS011;4244;48.684;9.028;2023-10-08T02:29:20;5.57;;;3.93;;
8413;SDS011;4244;48.684;9.028;2023-10-08T02:31:48;7.53;;;3.37;;
8413;SDS011;4244;48.684;9.028;2023-10-08T02:34:13;6.70;;;4.67;;
8413;SDS011;4244;48.684;9.028;2023-10-08T02:36:40;4.43;;;3.60;;
8413;SDS011;4244;48.684;9.028;2023-10-08T02:39:06;6.93;;;3.80;;
8413;SDS011;4244;48.684;9.028;2023-10-08T02:41:46;5.90;;;3.53;;
8413;SDS011;4244;48.684;9.028;2023-10-08T02:44:12;5.77;;;4.10;;
8413;SDS011;4244;48.684;9.028;2023-10-08T02:46:45;8.80;;;4.63;;
8413;SDS011;4244;48.684;9.028;2023-10-08T02:49:13;8.53;;;4.80;;
8413;SDS011;4244;48.684;9.028;2023-10-08T02:51:45;5.57;;;3.80;;
8413;SDS011;4244;48.684;9.028;2023-10-08T02:54:14;5.43;;;3.90;;
8413;SDS011;4244;48.684;9.028;2023-10-08T02:56:48;9.97;;;4.00;;
8413;SDS011;4244;48.684;9.028;2023-10-08T02:59:21;6.33;;;5.07;;
8413;SDS011;4244;48.684;9.028;2023-10-08T03:01:47;7.23;;;4.23;;
8413;SDS011;4244;48.684;9.028;2023-10-08T03:04:22;7.27;;;3.83;;
8413;SDS011;4244;48.684;9.028;2023-10-08T03:06:48;6.40;;;3.87;;
8413;SDS011;4244;48.684;9.028;2023-10-08T03:09:21;5.80;;;3.80;;
8413;SDS011;4244;48.684;9.028;2023-10-08T03:11:49;6.63;;;3.33;;
8413;SDS011;4244;48.684;9.028;2023-10-08T03:14:16;5.93;;;3.30;;
8413;SDS011;4244;48.684;9.028;2023-10-08T03:16:52;5.67;;;3.83;;
8413;SDS011;4244;48.684;9.028;2023-10-08T03:19:19;8.63;;;5.07;;
8413;SDS011;4244;48.684;9.028;2023-10-08T03:21:49;8.80;;;4.50;;
8413;SDS011;4244;48.684;9.028;2023-10-08T03:24:21;8.13;;;3.80;;
8413;SDS011;4244;48.684;9.028;2023-10-08T03:26:59;5.97;;;3.50;;
8413;SDS011;4244;48.684;9.028;2023-10-08T03:29:33;5.20;;;3.70;;
8413;SDS011;4244;48.684;9.028;2023-10-08T03:32:05;8.40;;;3.93;;
8413;SDS011;4244;48.684;9.028;2023-10-08T03:34:31;6.10;;;3.80;;
8413;SDS011;4244;48.684;9.028;2023-10-08T03:36:59;7.20;;;4.37;;
8413;SDS011;4244;48.684;9.028;2023-10-08T03:39:30;7.10;;;3.70;;
8413;SDS011;4244;48.684;9.028;2023-10-08T03:42:18;6.50;;;3.60;;
8413;SDS011;4244;48.684;9.028;2023-10-08T03:44:45;5.90;;;4.27;;
8413;SDS011;4244;48.684;9.028;2023-10-08T03:47:16;8.10;;;4.07;;
8413;SDS011;4244;48.684;9.028;2023-10-08T03:49:45;6.93;;;4.27;;
8413;SDS011;4244;48.684;9.028;2023-10-08T03:52:11;5.73;;;4.00;;
8413;SDS011;4244;48.684;9.028;2023-10-08T03:54:38;7.57;;;4.40;;
8413;SDS011;4244;48.684;9.028;2023-10-08T03:57:08;5.83;;;3.63;;
8413;SDS011;4244;48.684;9.028;2023-10-08T03:59:50;6.90;;;4.23;;
8413;SDS011;4244;48.684;9.028;2023-10-08T04:02:20;6.10;;;3.90;;
8413;SDS011;4244;48.684;9.028;2023-10-08T04:05:04;5.90;;;3.37;;
8413;SDS011;4244;48.684;9.028;2023-10-08T04:07:43;5.93;;;3.50;;
8413;SDS011;4244;48.684;9.028;2023-10-08T04:10:23;6.77;;;3.50;;
8413;SDS011;4244;48.684;9.028;2023-10-08T04:13:08;4.20;;;3.60;;
8413;SDS011;4244;48.684;9.028;2023-10-08T04:15:34;8.37;;;4.27;;
8413;SDS011;4244;48.684;9.028;2023-10-08T04:18:09;7.50;;;3.77;;
8413;SDS011;4244;48.684;9.028;2023-10-08T04:20:36;4.97;;;3.60;;
8413;SDS011;4244;48.684;9.028;2023-10-08T04:23:05;7.43;;;3.57;;
8413;SDS011;4244;48.684;9.028;2023-10-08T04:25:46;8.10;;;3.53;;
8413;SDS011;4244;48.684;9.028;2023-10-08T04:28:18;4.83;;;3.40;;
8413;SDS011;4244;48.684;9.028;2023-10-08T04:30:45;6.07;;;3.93;;
8413;SDS011;4244;48.684;9.028;2023-10-08T04:33:12;5.77;;;3.97;;
8413;SDS011;4244;48.684;9.028;2023-10-08T04:35:40;7.30;;;3.73;;
8413;SDS011;4244;48.684;9.028;2023-10-08T04:38:16;4.90;;;3.37;;
8413;SDS011;4244;48.684;9.028;2023-10-08T04:40:47;4.47;;;3.00;;
8413;SDS011;4244;48.684;9.028;2023-10-08T04:43:22;5.77;;;3.87;;
8413;SDS011;4244;48.684;9.028;2023-10-08T04:46:00;6.20;;;4.00;;
8413;SDS011;4244;48.684;9.028;2023-10-08T04:48:47;6.60;;;3.97;;
8413;SDS011;4244;48.684;9.028;2023-10-08T04:51:20;5.73;;;3.63;;
8413;SDS011;4244;48.684;9.028;2023-10-08T04:53:48;5.40;;;3.03;;
8413;SDS011;4244;48.684;9.028;2023-10-08T04:56:14;5.73;;;3.80;;
8413;SDS011;4244;48.684;9.028;2023-10-08T04:58:43;5.40;;;3.63;;
8413;SDS011;4244;48.684;9.028;2023-10-08T05:01:13;4.80;;;3.93;;
8413;SDS011;4244;48.684;9.028;2023-10-08T05:03:49;6.30;;;4.37;;
8413;SDS011;4244;48.684;9.028;2023-10-08T05:06:28;7.47;;;4.50;;
8413;SDS011;4244;48.684;9.028;2023-10-08T05:09:04;7.63;;;4.17;;
8413;SDS011;4244;48.684;9.028;2023-10-08T05:11:49;6.63;;;3.80;;
8413;SDS011;4244;48.684;9.028;2023-10-08T05:14:15;6.53;;;3.90;;
8413;SDS011;4244;48.684;9.028;2023-10-08T05:17:00;5.60;;;3.93;;
8413;SDS011;4244;48.684;9.028;2023-10-08T05:19:35;6.40;;;3.77;;
8413;SDS011;4244;48.684;9.028;2023-10-08T05:22:10;7.10;;;4.00;;
8413;SDS011;4244;48.684;9.028;2023-10-08T05:24:52;7.30;;;3.63;;
8413;SDS011;4244;48.684;9.028;2023-10-08T05:27:51;8.57;;;4.20;;
8413;SDS011;4244;48.684;9.028;2023-10-08T05:30:19;7.50;;;3.97;;
8413;SDS011;4244;48.684;9.028;2023-10-08T05:33:07;7.20;;;4.67;;
8413;SDS011;4244;48.684;9.028;2023-10-08T05:36:03;6.70;;;4.90;;
8413;SDS011;4244;48.684;9.028;2023-10-08T05:38:34;6.70;;;5.10;;
8413;SDS011;4244;48.684;9.028;2023-10-08T05:41:00;7.33;;;5.27;;
8413;SDS011;4244;48.684;9.028;2023-10-08T05:46:04;7.30;;;5.07;;
8413;SDS011;4244;48.684;9.028;2023-10-08T05:48:55;5.90;;;4.43;;
8413;SDS011;4244;48.684;9.028;2023-10-08T05:51:48;8.60;;;5.43;;
8413;SDS011;4244;48.684;9.028;2023-10-08T05:54:18;5.70;;;4.23;;
8413;SDS011;4244;48.684;9.028;2023-10-08T05:56:53;7.80;;;4.93;;
8413;SDS011;4244;48.684;9.028;2023-10-08T05:59:31;6.00;;;4.30;;
8413;SDS011;4244;48.684;9.028;2023-10-08T06:02:19;7.33;;;4.40;;
8413;SDS011;4244;48.684;9.028;2023-10-08T06:05:09;7.60;;;4.47;;
8413;SDS011;4244;48.684;9.028;2023-10-08T06:07:39;5.43;;;4.00;;
8413;SDS011;4244;48.684;9.028;2023-10-08T06:10:27;7.40;;;4.60;;
8413;SDS011;4244;48.684;9.028;2023-10-08T06:15:40;8.53;;;5.10;;
8413;SDS011;4244;48.684;9.028;2023-10-08T06:18:10;6.37;;;4.53;;
8413;SDS011;4244;48.684;9.028;2023-10-08T06:20:38;7.27;;;4.67;;
8413;SDS011;4244;48.684;9.028;2023-10-08T06:23:08;6.30;;;4.23;;
8413;SDS011;4244;48.684;9.028;2023-10-08T06:25:48;7.20;;;4.00;;
8413;SDS011;4244;48.684;9.028;2023-10-08T06:28:21;6.37;;;4.57;;
8413;SDS011;4244;48.684;9.028;2023-10-08T06:30:54;6.77;;;4.27;;
8413;SDS011;4244;48.684;9.028;2023-10-08T06:33:23;5.53;;;3.87;;
8413;SDS011;4244;48.684;9.028;2023-10-08T06:35:52;6.23;;;4.10;;
8413;SDS011;4244;48.684;9.028;2023-10-08T06:38:31;5.40;;;3.77;;
8413;SDS011;4244;48.684;9.028;2023-10-08T06:41:01;6.57;;;3.67;;
8413;SDS011;4244;48.684;9.028;2023-10-08T06:43:35;6.33;;;4.00;;
8413;SDS011;4244;48.684;9.028;2023-10-08T06:46:02;5.20;;;4.27;;
8413;SDS011;4244;48.684;9.028;2023-10-08T06:48:28;6.73;;;4.17;;
8413;SDS011;4244;48.684;9.028;2023-10-08T06:50:54;8.20;;;4.70;;
8413;SDS011;4244;48.684;9.028;2023-10-08T06:53:22;8.03;;;4.37;;
8413;SDS011;4244;48.684;9.028;2023-10-08T06:55:48;9.40;;;4.37;;
8413;SDS011;4244;48.684;9.028;2023-10-08T06:58:19;5.80;;;4.03;;
8413;SDS011;4244;48.684;9.028;2023-10-08T07:00:45;5.90;;;4.07;;
8413;SDS011;4244;48.684;9.028;2023-10-08T07:03:16;7.50;;;4.27;;
8413;SDS011;4244;48.684;9.028;2023-10-08T07:05:43;6.40;;;3.90;;
8413;SDS011;4244;48.684;9.028;2023-10-08T07:08:28;6.97;;;4.03;;
8413;SDS011;4244;48.684;9.028;2023-10-08T07:10:59;5.53;;;4.37;;
8413;SDS011;4244;48.684;9.028;2023-10-08T07:13:26;6.97;;;4.77;;
8413;SDS011;4244;48.684;9.028;2023-10-08T07:15:54;8.50;;;4.73;;
8413;SDS011;4244;48.684;9.028;2023-10-08T07:18:21;5.13;;;3.47;;
8413;SDS011;4244;48.684;9.028;2023-10-08T07:20:59;6.87;;;3.60;;
8413;SDS011;4244;48.684;9.028;2023-10-08T07:23:29;7.43;;;3.73;;
8413;SDS011;4244;48.684;9.028;2023-10-08T07:25:59;6.40;;;3.77;;
8413;SDS011;4244;48.684;9.028;2023-10-08T07:28:41;5.90;;;4.50;;
8413;SDS011;4244;48.684;9.028;2023-10-08T07:31:17;6.20;;;4.13;;
8413;SDS011;4244;48.684;9.028;2023-10-08T07:33:49;4.80;;;3.40;;
8413;SDS011;4244;48.684;9.028;2023-10-08T07:36:21;6.70;;;4.53;;
8413;SDS011;4244;48.684;9.028;2023-10-08T07:38:54;7.20;;;3.63;;
8413;SDS011;4244;48.684;9.028;2023-10-08T07:41:20;6.53;;;3.80;;
8413;SDS011;4244;48.684;9.028;2023-10-08T07:43:46;5.03;;;3.30;;
8413;SDS011;4244;48.684;9.028;2023-10-08T07:46:21;4.57;;;3.20;;
8413;SDS011;4244;48.684;9.028;2023-10-08T07:48:47;5.83;;;3.93;;
8413;SDS011;4244;48.684;9.028;2023-10-08T07:51:13;5.97;;;3.90;;
8413;SDS011;4244;48.684;9.028;2023-10-08T07:53:39;4.10;;;3.30;;
8413;SDS011;4244;48.684;9.028;2023-10-08T07:56:07;11.13;;;5.00;;
8413;SDS011;4244;48.684;9.028;2023-10-08T07:58:34;5.30;;;3.93;;
8413;SDS011;4244;48.684;9.028;2023-10-08T08:01:06;6.10;;;3.60;;
8413;SDS011;4244;48.684;9.028;2023-10-08T08:03:32;7.97;;;3.83;;
8413;SDS011;4244;48.684;9.028;2023-10-08T08:06:01;8.33;;;4.00;;
8413;SDS011;4244;48.684;9.028;2023-10-08T08:08:36;6.60;;;4.03;;
8413;SDS011;4244;48.684;9.028;2023-10-08T08:11:03;5.90;;;3.43;;
8413;SDS011;4244;48.684;9.028;2023-10-08T08:13:37;6.60;;;4.37;;
8413;SDS011;4244;48.684;9.028;2023-10-08T08:16:07;5.90;;;4.20;;
8413;SDS011;4244;48.684;9.028;2023-10-08T08:18:45;6.30;;;3.83;;
8413;SDS011;4244;48.684;9.028;2023-10-08T08:21:11;6.47;;;3.90;;
8413;SDS011;4244;48.684;9.028;2023-10-08T08:23:44;8.03;;;3.57;;
8413;SDS011;4244;48.684;9.028;2023-10-08T08:26:18;5.07;;;3.50;;
8413;SDS011;4244;48.684;9.028;2023-10-08T08:28:55;6.23;;;3.40;;
8413;SDS011;4244;48.684;9.028;2023-10-08T08:31:22;6.00;;;3.27;;
8413;SDS011;4244;48.684;9.028;2023-10-08T08:33:49;5.10;;;3.53;;
8413;SDS011;4244;48.684;9.028;2023-10-08T08:36:46;5.50;;;3.50;;
8413;SDS011;4244;48.684;9.028;2023-10-08T08:39:14;9.63;;;4.40;;
8413;SDS011;4244;48.684;9.028;2023-10-08T08:41:54;5.17;;;4.37;;
8413;SDS011;4244;48.684;9.028;2023-10-08T08:44:26;7.20;;;4.40;;
8413;SDS011;4244;48.684;9.028;2023-10-08T08:46:54;5.73;;;3.80;;
8413;SDS011;4244;48.684;9.028;2023-10-08T08:49:23;6.20;;;4.20;;
8413;SDS011;4244;48.684;9.028;2023-10-08T08:51:49;5.43;;;4.07;;
8413;SDS011;4244;48.684;9.028;2023-10-08T08:54:18;5.77;;;3.97;;
8413;SDS011;4244;48.684;9.028;2023-10-08T08:56:45;7.10;;;4.07;;
8413;SDS011;4244;48.684;9.028;2023-10-08T08:59:11;5.50;;;4.07;;
8413;SDS011;4244;48.684;9.028;2023-10-08T09:01:38;5.03;;;3.70;;
8413;SDS011;4244;48.684;9.028;2023-10-08T09:04:04;5.83;;;4.00;;
8413;SDS011;4244;48.684;9.028;2023-10-08T09:06:32;5.10;;;3.57;;
8413;SDS011;4244;48.684;9.028;2023-10-08T09:09:05;4.63;;;3.70;;
8413;SDS011;4244;48.684;9.028;2023-10-08T09:11:51;5.57;;;3.63;;
8413;SDS011;4244;48.684;9.028;2023-10-08T09:14:21;6.30;;;3.77;;
8413;SDS011;4244;48.684;9.028;2023-10-08T09:16:48;5.03;;;4.13;;
8413;SDS011;4244;48.684;9.028;2023-10-08T09:19:15;6.00;;;3.97;;
8413;SDS011;4244;48.684;9.028;2023-10-08T09:24:34;5.47;;;4.33;;
8413;SDS011;4244;48.684;9.028;2023-10-08T09:27:04;7.13;;;4.07;;
8413;SDS011;4244;48.684;9.028;2023-10-08T09:29:34;5.00;;;3.50;;
8413;SDS011;4244;48.684;9.028;2023-10-08T09:32:09;7.17;;;4.70;;
8413;SDS011;4244;48.684;9.028;2023-10-08T09:34:36;6.20;;;4.40;;
8413;SDS011;4244;48.684;9.028;2023-10-08T09:37:02;6.70;;;3.97;;
8413;SDS011;4244;48.684;9.028;2023-10-08T09:39:30;6.43;;;4.37;;
8413;SDS011;4244;48.684;9.028;2023-10-08T09:41:59;10.40;;;4.90;;
8413;SDS011;4244;48.684;9.028;2023-10-08T09:44:27;6.83;;;4.07;;
8413;SDS011;4244;48.684;9.028;2023-10-08T09:47:06;5.90;;;4.40;;
8413;SDS011;4244;48.684;9.028;2023-10-08T09:49:41;8.53;;;4.83;;
8413;SDS011;4244;48.684;9.028;2023-10-08T09:52:22;6.93;;;4.57;;
8413;SDS011;4244;48.684;9.028;2023-10-08T09:54:52;9.80;;;4.60;;
8413;SDS011;4244;48.684;9.028;2023-10-08T09:57:29;8.67;;;4.20;;
8413;SDS011;4244;48.684;9.028;2023-10-08T09:59:55;7.03;;;5.10;;
8413;SDS011;4244;48.684;9.028;2023-10-08T10:02:24;6.87;;;3.90;;
8413;SDS011;4244;48.684;9.028;2023-10-08T10:04:52;6.60;;;4.80;;
8413;SDS011;4244;48.684;9.028;2023-10-08T10:07:20;6.67;;;4.60;;
8413;SDS011;4244;48.684;9.028;2023-10-08T10:09:49;5.53;;;3.60;;
8413;SDS011;4244;48.684;9.028;2023-10-08T10:12:20;7.60;;;4.00;;
8413;SDS011;4244;48.684;9.028;2023-10-08T10:14:51;5.90;;;3.90;;
8413;SDS011;4244;48.684;9.028;2023-10-08T10:17:20;7.53;;;4.10;;
8413;SDS011;4244;48.684;9.028;2023-10-08T10:19:56;8.27;;;4.40;;
8413;SDS011;4244;48.684;9.028;2023-10-08T10:22:34;6.63;;;4.50;;
8413;SDS011;4244;48.684;9.028;2023-10-08T10:25:03;10.47;;;5.53;;
8413;SDS011;4244;48.684;9.028;2023-10-08T10:27:42;6.90;;;4.40;;
8413;SDS011;4244;48.684;9.028;2023-10-08T10:30:33;10.63;;;4.83;;
8413;SDS011;4244;48.684;9.028;2023-10-08T10:33:02;8.23;;;4.97;;
8413;SDS011;4244;48.684;9.028;2023-10-08T10:35:31;9.17;;;4.70;;
8413;SDS011;4244;48.684;9.028;2023-10-08T10:37:58;7.23;;;4.00;;
8413;SDS011;4244;48.684;9.028;2023-10-08T10:40:28;6.77;;;4.37;;
8413;SDS011;4244;48.684;9.028;2023-10-08T10:43:07;6.03;;;3.80;;
8413;SDS011;4244;48.684;9.028;2023-10-08T10:45:34;7.30;;;4.00;;
8413;SDS011;4244;48.684;9.028;2023-10-08T10:48:08;9.80;;;6.13;;
8413;SDS011;4244;48.684;9.028;2023-10-08T10:50:57;6.30;;;4.03;;
8413;SDS011;4244;48.684;9.028;2023-10-08T10:53:29;8.57;;;4.50;;
8413;SDS011;4244;48.684;9.028;2023-10-08T10:55:58;9.33;;;4.43;;
8413;SDS011;4244;48.684;9.028;2023-10-08T10:58:31;10.17;;;5.00;;
8413;SDS011;4244;48.684;9.028;2023-10-08T11:01:04;6.87;;;4.50;;
8413;SDS011;4244;48.684;9.028;2023-10-08T11:03:49;6.50;;;4.77;;
8413;SDS011;4244;48.684;9.028;2023-10-08T11:06:21;7.10;;;4.17;;
8413;SDS011;4244;48.684;9.028;2023-10-08T11:08:50;6.00;;;4.10;;
8413;SDS011;4244;48.684;9.028;2023-10-08T11:11:17;5.43;;;4.07;;
8413;SDS011;4244;48.684;9.028;2023-10-08T11:13:43;6.07;;;4.40;;
8413;SDS011;4244;48.684;9.028;2023-10-08T11:16:16;8.20;;;4.93;;
8413;SDS011;4244;48.684;9.028;2023-10-08T11:18:45;7.00;;;4.60;;
8413;SDS011;4244;48.684;9.028;2023-10-08T11:21:22;7.73;;;5.23;;
8413;SDS011;4244;48.684;9.028;2023-10-08T11:23:49;8.17;;;4.53;;
8413;SDS011;4244;48.684;9.028;2023-10-08T11:26:20;8.13;;;4.80;;
8413;SDS011;4244;48.684;9.028;2023-10-08T11:28:57;7.00;;;4.80;;
8413;SDS011;4244;48.684;9.028;2023-10-08T11:31:28;8.53;;;4.53;;
8413;SDS011;4244;48.684;9.028;2023-10-08T11:34:02;5.47;;;4.30;;
8413;SDS011;4244;48.684;9.028;2023-10-08T11:36:35;7.37;;;4.17;;
8413;SDS011;4244;48.684;9.028;2023-10-08T11:39:14;8.40;;;4.53;;
8413;SDS011;4244;48.684;9.028;2023-10-08T11:41:56;6.20;;;4.43;;
8413;SDS011;4244;48.684;9.028;2023-10-08T11:44:30;6.67;;;4.80;;
8413;SDS011;4244;48.684;9.028;2023-10-08T11:46:56;5.90;;;4.47;;
8413;SDS011;4244;48.684;9.028;2023-10-08T11:49:29;7.33;;;4.37;;
8413;SDS011;4244;48.684;9.028;2023-10-08T11:52:01;8.07;;;4.30;;
8413;SDS011;4244;48.684;9.028;2023-10-08T11:54:27;8.13;;;4.40;;
8413;SDS011;4244;48.684;9.028;2023-10-08T11:56:53;10.07;;;4.97;;
8413;SDS011;4244;48.684;9.028;2023-10-08T11:59:20;5.90;;;4.60;;
8413;SDS011;4244;48.684;9.028;2023-10-08T12:01:45;6.50;;;4.63;;
8413;SDS011;4244;48.684;9.028;2023-10-08T12:04:11;12.57;;;5.63;;
8413;SDS011;4244;48.684;9.028;2023-10-08T12:06:41;6.67;;;4.23;;
8413;SDS011;4244;48.684;9.028;2023-10-08T12:09:17;8.03;;;5.03;;
8413;SDS011;4244;48.684;9.028;2023-10-08T12:11:46;6.83;;;5.47;;
8413;SDS011;4244;48.684;9.028;2023-10-08T12:14:12;8.87;;;5.43;;
8413;SDS011;4244;48.684;9.028;2023-10-08T12:16:39;8.40;;;5.80;;
8413;SDS011;4244;48.684;9.028;2023-10-08T12:19:06;6.33;;;4.50;;
8413;SDS011;4244;48.684;9.028;2023-10-08T12:21:42;7.57;;;5.20;;
8413;SDS011;4244;48.684;9.028;2023-10-08T12:24:14;5.97;;;5.37;;
8413;SDS011;4244;48.684;9.028;2023-10-08T12:26:40;9.53;;;5.10;;
8413;SDS011;4244;48.684;9.028;2023-10-08T12:29:15;7.63;;;5.30;;
8413;SDS011;4244;48.684;9.028;2023-10-08T12:31:42;9.47;;;5.60;;
8413;SDS011;4244;48.684;9.028;2023-10-08T12:34:12;7.57;;;6.13;;
8413;SDS011;4244;48.684;9.028;2023-10-08T12:36:38;8.40;;;5.00;;
8413;SDS011;4244;48.684;9.028;2023-10-08T12:39:04;7.30;;;5.80;;
8413;SDS011;4244;48.684;9.028;2023-10-08T12:41:39;11.00;;;6.00;;
8413;SDS011;4244;48.684;9.028;2023-10-08T12:44:06;8.23;;;5.53;;
8413;SDS011;4244;48.684;9.028;2023-10-08T12:46:33;7.67;;;5.63;;
8413;SDS011;4244;48.684;9.028;2023-10-08T12:48:59;8.40;;;4.80;;
8413;SDS011;4244;48.684;9.028;2023-10-08T12:51:26;7.33;;;5.40;;
8413;SDS011;4244;48.684;9.028;2023-10-08T12:53:57;7.83;;;5.33;;
8413;SDS011;4244;48.684;9.028;2023-10-08T12:56:31;8.20;;;4.97;;
8413;SDS011;4244;48.684;9.028;2023-10-08T12:59:03;9.87;;;6.00;;
8413;SDS011;4244;48.684;9.028;2023-10-08T13:01:31;6.40;;;5.57;;
8413;SDS011;4244;48.684;9.028;2023-10-08T13:03:58;6.47;;;4.90;;
8413;SDS011;4244;48.684;9.028;2023-10-08T13:06:27;7.97;;;5.47;;
8413;SDS011;4244;48.684;9.028;2023-10-08T13:08:56;7.67;;;5.83;;
8413;SDS011;4244;48.684;9.028;2023-10-08T13:11:23;9.73;;;6.20;;
8413;SDS011;4244;48.684;9.028;2023-10-08T13:13:50;8.47;;;5.70;;
8413;SDS011;4244;48.684;9.028;2023-10-08T13:16:19;11.00;;;5.90;;
8413;SDS011;4244;48.684;9.028;2023-10-08T13:18:48;8.40;;;5.80;;
8413;SDS011;4244;48.684;9.028;2023-10-08T13:21:14;8.90;;;6.00;;
8413;SDS011;4244;48.684;9.028;2023-10-08T13:23:40;9.53;;;5.30;;
8413;SDS011;4244;48.684;9.028;2023-10-08T13:26:06;9.70;;;5.90;;
8413;SDS011;4244;48.684;9.028;2023-10-08T13:28:35;9.23;;;6.90;;
8413;SDS011;4244;48.684;9.028;2023-10-08T13:31:01;9.73;;;6.03;;
8413;SDS011;4244;48.684;9.028;2023-10-08T13:33:40;11.30;;;6.20;;
8413;SDS011;4244;48.684;9.028;2023-10-08T13:36:14;7.40;;;5.37;;
8413;SDS011;4244;48.684;9.028;2023-10-08T13:38:40;7.70;;;5.40;;
8413;SDS011;4244;48.684;9.028;2023-10-08T13:41:07;8.27;;;5.90;;
8413;SDS011;4244;48.684;9.028;2023-10-08T13:43:53;7.80;;;5.73;;
8413;SDS011;4244;48.684;9.028;2023-10-08T13:46:27;7.50;;;5.93;;
8413;SDS011;4244;48.684;9.028;2023-10-08T13:48:52;8.40;;;5.77;;
8413;SDS011;4244;48.684;9.028;2023-10-08T13:51:21;10.47;;;6.23;;
8413;SDS011;4244;48.684;9.028;2023-10-08T13:53:51;10.80;;;5.53;;
8413;SDS011;4244;48.684;9.028;2023-10-08T13:56:28;10.37;;;5.67;;
8413;SDS011;4244;48.684;9.028;2023-10-08T13:58:56;11.93;;;5.83;;
8413;SDS011;4244;48.684;9.028;2023-10-08T14:01:49;7.60;;;4.63;;
8413;SDS011;4244;48.684;9.028;2023-10-08T14:04:16;9.87;;;5.90;;
8413;SDS011;4244;48.684;9.028;2023-10-08T14:06:44;8.33;;;5.43;;
8413;SDS011;4244;48.684;9.028;2023-10-08T14:09:17;8.57;;;5.30;;
8413;SDS011;4244;48.684;9.028;2023-10-08T14:11:47;10.03;;;5.10;;
8413;SDS011;4244;48.684;9.028;2023-10-08T14:14:15;9.77;;;5.23;;
8413;SDS011;4244;48.684;9.028;2023-10-08T14:16:43;11.03;;;5.43;;
8413;SDS011;4244;48.684;9.028;2023-10-08T14:19:11;10.53;;;5.20;;
8413;SDS011;4244;48.684;9.028;2023-10-08T14:21:42;12.27;;;5.87;;
8413;SDS011;4244;48.684;9.028;2023-10-08T14:24:27;8.27;;;5.87;;
8413;SDS011;4244;48.684;9.028;2023-10-08T14:26:57;6.33;;;5.03;;
8413;SDS011;4244;48.684;9.028;2023-10-08T14:29:28;6.90;;;4.83;;
8413;SDS011;4244;48.684;9.028;2023-10-08T14:31:54;8.80;;;5.30;;
8413;SDS011;4244;48.684;9.028;2023-10-08T14:34:22;8.90;;;5.50;;
8413;SDS011;4244;48.684;9.028;2023-10-08T14:37:06;10.13;;;5.50;;
8413;SDS011;4244;48.684;9.028;2023-10-08T14:39:50;8.20;;;4.90;;
8413;SDS011;4244;48.684;9.028;2023-10-08T14:42:34;10.10;;;5.77;;
8413;SDS011;4244;48.684;9.028;2023-10-08T14:45:18;9.40;;;5.33;;
8413;SDS011;4244;48.684;9.028;2023-10-08T14:47:44;12.30;;;5.30;;
8413;SDS011;4244;48.684;9.028;2023-10-08T14:50:10;12.47;;;4.90;;
8413;SDS011;4244;48.684;9.028;2023-10-08T14:52:43;11.53;;;4.77;;
8413;SDS011;4244;48.684;9.028;2023-10-08T14:55:09;8.13;;;5.00;;
8413;SDS011;4244;48.684;9.028;2023-10-08T14:57:35;11.77;;;5.60;;
8413;SDS011;4244;48.684;9.028;2023-10-08T15:00:01;9.13;;;5.00;;
8413;SDS011;4244;48.684;9.028;2023-10-08T15:02:30;8.07;;;5.23;;
8413;SDS011;4244;48.684;9.028;2023-10-08T15:04:56;8.10;;;4.90;;
8413;SDS011;4244;48.684;9.028;2023-10-08T15:07:22;8.60;;;4.83;;
8413;SDS011;4244;48.684;9.028;2023-10-08T15:09:48;11.60;;;5.73;;
8413;SDS011;4244;48.684;9.028;2023-10-08T15:12:15;7.30;;;5.60;;
8413;SDS011;4244;48.684;9.028;2023-10-08T15:14:41;7.40;;;4.77;;
8413;SDS011;4244;48.684;9.028;2023-10-08T15:17:07;7.30;;;5.60;;
8413;SDS011;4244;48.684;9.028;2023-10-08T15:19:34;8.47;;;5.40;;
8413;SDS011;4244;48.684;9.028;2023-10-08T15:22:00;8.40;;;4.20;;
8413;SDS011;4244;48.684;9.028;2023-10-08T15:24:27;6.30;;;4.97;;
8413;SDS011;4244;48.684;9.028;2023-10-08T15:26:54;9.40;;;5.40;;
8413;SDS011;4244;48.684;9.028;2023-10-08T15:29:20;11.27;;;5.43;;
8413;SDS011;4244;48.684;9.028;2023-10-08T15:31:47;5.80;;;4.30;;
8413;SDS011;4244;48.684;9.028;2023-10-08T15:34:14;7.40;;;4.90;;
8413;SDS011;4244;48.684;9.028;2023-10-08T15:36:40;8.60;;;5.00;;
8413;SDS011;4244;48.684;9.028;2023-10-08T15:39:06;6.07;;;4.40;;
8413;SDS011;4244;48.684;9.028;2023-10-08T15:41:35;7.33;;;5.20;;
8413;SDS011;4244;48.684;9.028;2023-10-08T15:44:02;8.13;;;5.23;;
8413;SDS011;4244;48.684;9.028;2023-10-08T15:46:27;7.83;;;4.30;;
8413;SDS011;4244;48.684;9.028;2023-10-08T15:48:53;7.50;;;4.50;;